sensor_id;sensor_type;location;lat;lon;timestamp;pressure;altitude;pressure_sealevel;temperature;humidity
39309;BME280;26019;47.510;19.122;2024-03-07T00:04:32;100194.00;;;8.39;100.00
39309;BME280;26019;47.510;19.122;2024-03-07T00:14:34;100195.72;;;8.40;100.00
39309;BME280;26019;47.510;19.122;2024-03-07T00:24:37;100199.19;;;8.50;100.00
39309;BME280;26019;47.510;19.122;2024-03-07T00:34:39;100193.16;;;8.43;100.00
39309;BME280;26019;47.510;19.122;2024-03-07T00:44:42;100199.97;;;8.29;100.00
39309;BME280;26019;47.510;19.122;2024-03-07T00:54:44;100192.28;;;8.19;100.00
39309;BME280;26019;47.510;19.122;2024-03-07T01:04:46;100195.69;;;8.17;100.00
39309;BME280;26019;47.510;19.122;2024-03-07T01:14:48;100198.22;;;8.03;100.00
39309;BME280;26019;47.510;19.122;2024-03-07T01:24:53;100196.53;;;8.11;100.00
39309;BME280;26019;47.510;19.122;2024-03-07T01:34:55;100187.94;;;8.04;100.00
39309;BME280;26019;47.510;19.122;2024-03-07T01:44:57;100190.50;;;7.90;100.00
39309;BME280;26019;47.510;19.122;2024-03-07T01:55:00;100189.59;;;7.82;100.00
39309;BME280;26019;47.510;19.122;2024-03-07T02:05:02;100188.66;;;7.60;100.00
39309;BME280;26019;47.510;19.122;2024-03-07T02:15:04;100190.38;;;7.59;100.00
39309;BME280;26019;47.510;19.122;2024-03-07T02:25:07;100192.13;;;7.71;100.00
39309;BME280;26019;47.510;19.122;2024-03-07T02:35:12;100189.53;;;7.70;100.00
39309;BME280;26019;47.510;19.122;2024-03-07T02:45:17;100189.53;;;7.67;100.00
39309;BME280;26019;47.510;19.122;2024-03-07T02:55:19;100182.59;;;7.47;100.00
39309;BME280;26019;47.510;19.122;2024-03-07T03:05:21;100186.00;;;7.41;100.00
39309;BME280;26019;47.510;19.122;2024-03-07T03:15:24;100191.84;;;7.09;100.00
39309;BME280;26019;47.510;19.122;2024-03-07T03:25:26;100179.75;;;6.97;100.00
39309;BME280;26019;47.510;19.122;2024-03-07T03:35:27;100177.91;;;6.78;100.00
39309;BME280;26019;47.510;19.122;2024-03-07T03:45:30;100178.81;;;6.83;100.00
39309;BME280;26019;47.510;19.122;2024-03-07T03:55:36;100188.13;;;6.70;100.00
39309;BME280;26019;47.510;19.122;2024-03-07T04:05:40;100192.31;;;6.57;100.00
39309;BME280;26019;47.510;19.122;2024-03-07T04:15:43;100191.31;;;6.41;100.00
39309;BME280;26019;47.510;19.122;2024-03-07T04:25:45;100192.84;;;6.23;100.00
39309;BME280;26019;47.510;19.122;2024-03-07T04:35:47;100203.03;;;6.17;100.00
39309;BME280;26019;47.510;19.122;2024-03-07T04:45:49;100213.28;;;6.12;100.00
39309;BME280;26019;47.510;19.122;2024-03-07T04:55:51;100213.13;;;6.00;100.00
39309;BME280;26019;47.510;19.122;2024-03-07T05:05:53;100222.47;;;5.95;100.00
39309;BME280;26019;47.510;19.122;2024-03-07T05:15:55;100230.97;;;5.91;100.00
39309;BME280;26019;47.510;19.122;2024-03-07T05:25:57;100232.66;;;5.89;100.00
39309;BME280;26019;47.510;19.122;2024-03-07T05:35:59;100236.44;;;6.19;100.00
39309;BME280;26019;47.510;19.122;2024-03-07T05:46:16;100237.38;;;6.28;100.00
39309;BME280;26019;47.510;19.122;2024-03-07T05:56:18;100248.84;;;6.60;100.00
39309;BME280;26019;47.510;19.122;2024-03-07T06:06:20;100257.44;;;6.68;100.00
39309;BME280;26019;47.510;19.122;2024-03-07T06:16:23;100258.50;;;6.91;100.00
39309;BME280;26019;47.510;19.122;2024-03-07T06:26:35;100265.47;;;7.04;100.00
39309;BME280;26019;47.510;19.122;2024-03-07T06:36:59;100274.22;;;7.36;100.00
39309;BME280;26019;47.510;19.122;2024-03-07T06:47:02;100282.81;;;7.36;100.00
39309;BME280;26019;47.510;19.122;2024-03-07T06:57:07;100287.25;;;7.57;100.00
39309;BME280;26019;47.510;19.122;2024-03-07T07:07:11;100303.50;;;7.53;100.00
39309;BME280;26019;47.510;19.122;2024-03-07T07:17:14;100304.41;;;7.61;100.00
39309;BME280;26019;47.510;19.122;2024-03-07T07:27:16;100304.53;;;7.86;100.00
39309;BME280;26019;47.510;19.122;2024-03-07T07:37:21;100318.25;;;7.82;100.00
39309;BME280;26019;47.510;19.122;2024-03-07T07:47:23;100318.22;;;7.81;100.00
39309;BME280;26019;47.510;19.122;2024-03-07T07:57:25;100319.94;;;7.75;100.00
39309;BME280;26019;47.510;19.122;2024-03-07T08:07:27;100330.31;;;7.94;100.00
39309;BME280;26019;47.510;19.122;2024-03-07T08:17:31;100339.84;;;8.17;100.00
39309;BME280;26019;47.510;19.122;2024-03-07T08:27:35;100346.75;;;8.27;96.75
39309;BME280;26019;47.510;19.122;2024-03-07T08:37:41;100357.91;;;8.25;95.90
39309;BME280;26019;47.510;19.122;2024-03-07T08:47:43;100356.94;;;8.02;100.00
39309;BME280;26019;47.510;19.122;2024-03-07T08:57:46;100361.22;;;8.02;100.00
39309;BME280;26019;47.510;19.122;2024-03-07T09:07:51;100368.09;;;8.06;97.05
39309;BME280;26019;47.510;19.122;2024-03-07T09:17:53;100369.97;;;8.38;95.73
39309;BME280;26019;47.510;19.122;2024-03-07T09:27:55;100385.47;;;8.47;93.74
39309;BME280;26019;47.510;19.122;2024-03-07T09:37:57;100380.44;;;8.78;91.21
39309;BME280;26019;47.510;19.122;2024-03-07T09:48:00;100387.31;;;8.86;88.30
39309;BME280;26019;47.510;19.122;2024-03-07T09:58:05;100380.47;;;9.03;87.46
39309;BME280;26019;47.510;19.122;2024-03-07T10:08:08;100389.91;;;8.86;83.74
39309;BME280;26019;47.510;19.122;2024-03-07T10:18:11;100385.63;;;9.09;85.33
39309;BME280;26019;47.510;19.122;2024-03-07T10:28:16;100396.81;;;9.39;76.01
39309;BME280;26019;47.510;19.122;2024-03-07T10:38:19;100400.19;;;8.87;79.71
39309;BME280;26019;47.510;19.122;2024-03-07T10:48:25;100401.03;;;8.80;85.20
39309;BME280;26019;47.510;19.122;2024-03-07T11:08:37;100402.72;;;8.70;85.67
39309;BME280;26019;47.510;19.122;2024-03-07T11:18:39;100404.50;;;8.84;87.30
39309;BME280;26019;47.510;19.122;2024-03-07T11:28:43;100400.22;;;8.98;82.32
39309;BME280;26019;47.510;19.122;2024-03-07T11:38:49;100395.94;;;9.13;82.49
39309;BME280;26019;47.510;19.122;2024-03-07T11:48:54;100399.41;;;9.38;77.55
39309;BME280;26019;47.510;19.122;2024-03-07T11:59:01;100392.50;;;9.46;79.35
39309;BME280;26019;47.510;19.122;2024-03-07T12:09:04;100398.56;;;9.25;80.71
39309;BME280;26019;47.510;19.122;2024-03-07T12:19:08;100397.66;;;9.73;78.37
39309;BME280;26019;47.510;19.122;2024-03-07T12:29:12;100389.91;;;9.76;79.95
39309;BME280;26019;47.510;19.122;2024-03-07T12:39:24;100392.50;;;9.66;81.23
39309;BME280;26019;47.510;19.122;2024-03-07T12:49:26;100392.53;;;9.23;80.94
39309;BME280;26019;47.510;19.122;2024-03-07T12:59:28;100399.41;;;9.27;83.70
39309;BME280;26019;47.510;19.122;2024-03-07T13:09:31;100394.25;;;9.46;81.37
39309;BME280;26019;47.510;19.122;2024-03-07T13:19:34;100403.69;;;9.17;83.17
39309;BME280;26019;47.510;19.122;2024-03-07T13:29:36;100407.09;;;8.99;87.33
39309;BME280;26019;47.510;19.122;2024-03-07T13:39:38;100406.28;;;9.25;90.31
39309;BME280;26019;47.510;19.122;2024-03-07T13:49:39;100411.38;;;8.85;93.71
39309;BME280;26019;47.510;19.122;2024-03-07T14:00:05;100412.19;;;8.82;96.18
39309;BME280;26019;47.510;19.122;2024-03-07T14:10:52;100416.44;;;8.66;100.00
39309;BME280;26019;47.510;19.122;2024-03-07T14:31:24;100427.50;;;8.39;100.00
39309;BME280;26019;47.510;19.122;2024-03-07T14:41:57;100417.88;;;8.08;100.00
39309;BME280;26019;47.510;19.122;2024-03-07T14:52:01;100417.91;;;8.11;100.00
39309;BME280;26019;47.510;19.122;2024-03-07T15:02:05;100425.47;;;7.88;100.00
39309;BME280;26019;47.510;19.122;2024-03-07T15:12:12;100421.97;;;7.80;100.00
39309;BME280;26019;47.510;19.122;2024-03-07T15:22:17;100433.94;;;7.73;100.00
39309;BME280;26019;47.510;19.122;2024-03-07T15:32:22;100425.28;;;7.63;100.00
39309;BME280;26019;47.510;19.122;2024-03-07T15:42:23;100432.13;;;7.61;100.00
39309;BME280;26019;47.510;19.122;2024-03-07T15:52:26;100439.66;;;7.38;100.00
39309;BME280;26019;47.510;19.122;2024-03-07T16:02:28;100454.00;;;7.15;100.00
39309;BME280;26019;47.510;19.122;2024-03-07T16:12:30;100449.59;;;7.03;100.00
39309;BME280;26019;47.510;19.122;2024-03-07T16:22:35;100454.31;;;6.66;100.00
39309;BME280;26019;47.510;19.122;2024-03-07T16:32:38;100452.66;;;6.71;100.00
39309;BME280;26019;47.510;19.122;2024-03-07T16:42:44;100471.47;;;6.70;100.00
39309;BME280;26019;47.510;19.122;2024-03-07T16:52:53;100478.38;;;6.73;100.00
39309;BME280;26019;47.510;19.122;2024-03-07T17:02:57;100488.66;;;6.75;100.00
39309;BME280;26019;47.510;19.122;2024-03-07T17:13:03;100486.00;;;6.67;100.00
39309;BME280;26019;47.510;19.122;2024-03-07T17:23:12;100496.97;;;6.55;100.00
39309;BME280;26019;47.510;19.122;2024-03-07T17:33:15;100498.59;;;6.48;100.00
39309;BME280;26019;47.510;19.122;2024-03-07T17:43:18;100512.91;;;6.31;100.00
39309;BME280;26019;47.510;19.122;2024-03-07T17:53:21;100506.94;;;6.33;100.00
39309;BME280;26019;47.510;19.122;2024-03-07T18:03:23;100510.38;;;6.35;100.00
39309;BME280;26019;47.510;19.122;2024-03-07T18:13:25;100517.97;;;6.26;100.00
39309;BME280;26019;47.510;19.122;2024-03-07T18:23:28;100528.31;;;6.31;100.00
39309;BME280;26019;47.510;19.122;2024-03-07T18:33:31;100521.88;;;6.02;100.00
39309;BME280;26019;47.510;19.122;2024-03-07T18:43:33;100537.41;;;6.11;100.00
39309;BME280;26019;47.510;19.122;2024-03-07T18:53:35;100535.84;;;6.20;100.00
39309;BME280;26019;47.510;19.122;2024-03-07T19:03:38;100545.84;;;6.04;100.00
39309;BME280;26019;47.510;19.122;2024-03-07T19:13:41;100550.00;;;5.97;100.00
39309;BME280;26019;47.510;19.122;2024-03-07T19:23:44;100551.63;;;5.92;100.00
39309;BME280;26019;47.510;19.122;2024-03-07T19:33:48;100557.56;;;5.90;100.00
39309;BME280;26019;47.510;19.122;2024-03-07T19:43:53;100557.28;;;5.74;100.00
39309;BME280;26019;47.510;19.122;2024-03-07T19:53:56;100556.31;;;5.67;100.00
39309;BME280;26019;47.510;19.122;2024-03-07T20:04:00;100554.31;;;5.51;100.00
39309;BME280;26019;47.510;19.122;2024-03-07T20:14:03;100571.31;;;5.46;100.00
39309;BME280;26019;47.510;19.122;2024-03-07T20:24:07;100565.06;;;5.33;100.00
39309;BME280;26019;47.510;19.122;2024-03-07T20:34:10;100565.81;;;5.27;100.00
39309;BME280;26019;47.510;19.122;2024-03-07T20:44:14;100555.72;;;5.35;100.00
39309;BME280;26019;47.510;19.122;2024-03-07T20:54:17;100563.94;;;5.18;100.00
39309;BME280;26019;47.510;19.122;2024-03-07T21:04:22;100560.56;;;5.19;100.00
39309;BME280;26019;47.510;19.122;2024-03-07T21:14:31;100557.59;;;5.01;100.00
39309;BME280;26019;47.510;19.122;2024-03-07T21:24:36;100560.88;;;4.93;100.00
39309;BME280;26019;47.510;19.122;2024-03-07T21:34:43;100560.22;;;5.02;100.00
39309;BME280;26019;47.510;19.122;2024-03-07T21:44:45;100567.97;;;5.07;100.00
39309;BME280;26019;47.510;19.122;2024-03-07T21:54:47;100565.53;;;5.12;100.00
39309;BME280;26019;47.510;19.122;2024-03-07T22:04:49;100567.09;;;5.05;100.00
39309;BME280;26019;47.510;19.122;2024-03-07T22:15:01;100557.59;;;5.01;100.00
39309;BME280;26019;47.510;19.122;2024-03-07T22:25:03;100561.13;;;5.06;100.00
39309;BME280;26019;47.510;19.122;2024-03-07T22:35:07;100556.06;;;5.09;100.00
39309;BME280;26019;47.510;19.122;2024-03-07T22:45:12;100559.53;;;5.11;100.00
39309;BME280;26019;47.510;19.122;2024-03-07T22:55:23;100558.84;;;5.20;100.00
39309;BME280;26019;47.510;19.122;2024-03-07T23:05:25;100552.59;;;5.07;100.00
39309;BME280;26019;47.510;19.122;2024-03-07T23:15:30;100552.81;;;5.16;100.00
39309;BME280;26019;47.510;19.122;2024-03-07T23:25:34;100559.59;;;5.14;100.00
39309;BME280;26019;47.510;19.122;2024-03-07T23:35:36;100561.38;;;5.18;100.00
39309;BME280;26019;47.510;19.122;2024-03-07T23:45:40;100563.25;;;5.26;100.00
39309;BME280;26019;47.510;19.122;2024-03-07T23:55:42;100577.06;;;5.34;100.00
